createdAt,value
2023-03-12T00:01:59.756Z,-0.99
2023-03-12T00:04:26.917Z,-1.02
2023-03-12T00:06:53.479Z,-1.02
2023-03-12T00:09:20.000Z,-1.04
2023-03-12T00:11:46.453Z,-1.01
2023-03-12T00:14:12.888Z,-1.03
2023-03-12T00:16:39.340Z,-0.98
2023-03-12T00:19:05.844Z,-0.98
2023-03-12T00:21:32.271Z,-0.99
2023-03-12T00:23:58.752Z,-0.96
2023-03-12T00:26:25.223Z,-0.84
2023-03-12T00:28:51.798Z,-0.85
2023-03-12T00:31:19.799Z,-0.86
2023-03-12T00:33:46.360Z,-0.93
2023-03-12T00:36:12.792Z,-1.00
2023-03-12T00:38:39.272Z,-1.01
2023-03-12T00:41:05.710Z,-1.06
2023-03-12T00:43:32.175Z,-0.98
2023-03-12T00:45:58.618Z,-0.93
2023-03-12T00:48:25.375Z,-0.92
2023-03-12T00:50:51.802Z,-0.87
2023-03-12T00:53:18.269Z,-0.82
2023-03-12T00:55:44.783Z,-0.81
2023-03-12T00:58:11.195Z,-0.81
2023-03-12T01:00:37.676Z,-0.79
2023-03-12T01:03:04.195Z,-0.73
2023-03-12T01:05:32.975Z,-0.74
2023-03-12T01:08:01.228Z,-0.78
2023-03-12T01:10:27.674Z,-0.70
2023-03-12T01:12:54.122Z,-0.78
2023-03-12T01:15:20.638Z,-0.80
2023-03-12T01:17:47.137Z,-0.79
2023-03-12T01:20:13.768Z,-0.70
2023-03-12T01:22:40.168Z,-0.71
2023-03-12T01:25:07.202Z,-0.66
2023-03-12T01:27:33.649Z,-0.65
2023-03-12T01:30:00.401Z,-0.60
2023-03-12T01:32:27.015Z,-0.63
2023-03-12T01:34:53.570Z,-0.68
2023-03-12T01:37:20.003Z,-0.71
2023-03-12T01:39:46.542Z,-0.82
2023-03-12T01:42:12.979Z,-0.84
2023-03-12T01:45:08.899Z,-0.82
2023-03-12T01:47:35.346Z,-0.83
2023-03-12T01:50:03.403Z,-0.80
2023-03-12T01:52:32.306Z,-0.79
2023-03-12T01:55:01.741Z,-0.79
2023-03-12T01:57:40.409Z,-0.76
2023-03-12T02:00:13.074Z,-0.78
2023-03-12T02:02:40.026Z,-0.83
2023-03-12T02:05:09.310Z,-0.79
2023-03-12T02:07:35.758Z,-0.80
2023-03-12T02:10:03.464Z,-0.79
2023-03-12T02:12:29.992Z,-0.87
2023-03-12T02:14:56.480Z,-0.83
2023-03-12T02:17:23.037Z,-0.82
2023-03-12T02:20:08.362Z,-0.82
2023-03-12T02:22:39.177Z,-0.83
2023-03-12T02:25:17.586Z,-0.84
2023-03-12T02:27:44.183Z,-0.87
2023-03-12T02:30:10.983Z,-0.84
2023-03-12T02:32:39.539Z,-0.79
2023-03-12T02:35:06.449Z,-0.78
2023-03-12T02:37:32.945Z,-0.87
2023-03-12T02:40:08.667Z,-0.87
2023-03-12T02:42:35.367Z,-0.85
2023-03-12T02:45:03.065Z,-0.83
2023-03-12T02:47:29.568Z,-0.91
2023-03-12T02:49:56.044Z,-0.92
2023-03-12T02:52:22.518Z,-0.95
2023-03-12T02:55:07.611Z,-0.93
2023-03-12T02:57:37.543Z,-0.90
2023-03-12T03:00:11.958Z,-0.92
2023-03-12T03:02:39.154Z,-0.96
2023-03-12T03:05:05.766Z,-0.98
2023-03-12T03:07:32.258Z,-0.95
2023-03-12T03:10:04.087Z,-0.97
2023-03-12T03:12:34.186Z,-1.00
2023-03-12T03:15:01.034Z,-1.01
2023-03-12T03:17:27.946Z,-0.99
2023-03-12T03:19:54.391Z,-0.97
2023-03-12T03:22:21.580Z,-0.95
2023-03-12T03:24:48.039Z,-0.91
2023-03-12T03:27:14.915Z,-0.90
2023-03-12T03:29:41.574Z,-0.87
2023-03-12T03:32:08.026Z,-0.93
2023-03-12T03:34:34.534Z,-1.11
2023-03-12T03:37:01.022Z,-1.16
2023-03-12T03:39:28.891Z,-1.11
2023-03-12T03:41:55.336Z,-1.06
2023-03-12T03:44:23.242Z,-1.05
2023-03-12T03:46:49.916Z,-1.03
2023-03-12T03:49:16.860Z,-1.07
2023-03-12T03:51:43.395Z,-1.06
2023-03-12T03:54:10.088Z,-1.09
2023-03-12T03:56:36.581Z,-1.21
2023-03-12T03:59:04.146Z,-1.29
2023-03-12T04:01:31.479Z,-1.26
2023-03-12T04:03:58.503Z,-1.29
2023-03-12T04:06:25.416Z,-1.26
2023-03-12T04:08:51.933Z,-1.23
2023-03-12T04:11:19.769Z,-1.23
2023-03-12T04:13:46.513Z,-1.19
2023-03-12T04:16:13.885Z,-1.17
2023-03-12T04:18:42.236Z,-1.23
2023-03-12T04:21:09.841Z,-1.25
2023-03-12T04:23:37.048Z,-1.29
2023-03-12T04:26:04.112Z,-1.37
2023-03-12T04:28:30.639Z,-1.39
2023-03-12T04:31:01.112Z,-1.40
2023-03-12T04:33:28.588Z,-1.55
2023-03-12T04:35:55.447Z,-1.53
2023-03-12T04:38:22.571Z,-1.48
2023-03-12T04:40:57.598Z,-1.52
2023-03-12T04:43:24.068Z,-1.59
2023-03-12T04:45:50.726Z,-1.55
2023-03-12T04:48:17.161Z,-1.59
2023-03-12T04:50:44.658Z,-1.57
2023-03-12T04:53:11.246Z,-1.62
2023-03-12T04:55:37.679Z,-1.65
2023-03-12T04:58:04.231Z,-1.62
2023-03-12T05:00:30.752Z,-1.58
2023-03-12T05:02:57.271Z,-1.63
2023-03-12T05:05:23.925Z,-1.69
2023-03-12T05:07:50.375Z,-1.61
2023-03-12T05:10:16.824Z,-1.59
2023-03-12T05:12:43.316Z,-1.59
2023-03-12T05:15:10.056Z,-1.59
2023-03-12T05:17:36.489Z,-1.65
2023-03-12T05:20:05.160Z,-1.65
2023-03-12T05:22:31.832Z,-1.62
2023-03-12T05:24:58.258Z,-1.57
2023-03-12T05:27:26.163Z,-1.56
2023-03-12T05:29:53.152Z,-1.64
2023-03-12T05:32:19.618Z,-1.65
2023-03-12T05:34:46.156Z,-1.62
2023-03-12T05:37:12.616Z,-1.60
2023-03-12T05:39:39.534Z,-1.57
2023-03-12T05:42:06.198Z,-1.66
2023-03-12T05:44:34.822Z,-1.66
2023-03-12T05:47:01.292Z,-1.66
2023-03-12T05:49:27.714Z,-1.69
2023-03-12T05:51:54.186Z,-1.70
2023-03-12T05:54:20.676Z,-1.65
2023-03-12T05:56:47.145Z,-1.67
2023-03-12T05:59:13.762Z,-1.59
2023-03-12T06:01:40.538Z,-1.61
2023-03-12T06:04:07.174Z,-1.63
2023-03-12T06:06:34.650Z,-1.59
2023-03-12T06:09:01.228Z,-1.60
2023-03-12T06:11:27.710Z,-1.58
2023-03-12T06:13:54.192Z,-1.56
2023-03-12T06:16:21.669Z,-1.54
2023-03-12T06:18:48.220Z,-1.53
2023-03-12T06:21:19.019Z,-1.57
2023-03-12T06:23:46.251Z,-1.52
2023-03-12T06:26:13.135Z,-1.48
2023-03-12T06:28:40.164Z,-1.50
2023-03-12T06:31:07.097Z,-1.47
2023-03-12T06:33:34.127Z,-1.44
2023-03-12T06:36:01.725Z,-1.36
2023-03-12T06:38:28.711Z,-1.36
2023-03-12T06:41:00.194Z,-1.35
2023-03-12T06:43:27.757Z,-1.35
2023-03-12T06:45:54.949Z,-1.31
2023-03-12T06:48:21.880Z,-1.27
2023-03-12T06:50:48.539Z,-1.30
2023-03-12T06:53:14.975Z,-1.25
2023-03-12T06:55:41.401Z,-1.18
2023-03-12T06:58:07.895Z,-1.23
2023-03-12T07:00:34.871Z,-1.15
2023-03-12T07:03:01.737Z,-1.12
2023-03-12T07:05:30.072Z,-1.05
2023-03-12T07:07:57.858Z,-0.98
2023-03-12T07:10:24.352Z,-1.01
2023-03-12T07:12:50.953Z,-0.99
2023-03-12T07:15:17.418Z,-0.97
2023-03-12T07:17:43.855Z,-0.93
2023-03-12T07:20:10.736Z,-0.96
2023-03-12T07:22:37.197Z,-0.89
2023-03-12T07:25:04.729Z,-0.84
2023-03-12T07:27:31.193Z,-0.82
2023-03-12T07:29:57.637Z,-0.74
2023-03-12T07:32:24.105Z,-0.73
2023-03-12T07:34:50.576Z,-0.70
2023-03-12T07:37:17.052Z,-0.65
2023-03-12T07:39:44.537Z,-0.60
2023-03-12T07:42:12.850Z,-0.52
2023-03-12T07:44:39.447Z,-0.44
2023-03-12T07:47:22.313Z,-0.39
2023-03-12T07:49:49.625Z,-0.33
2023-03-12T07:52:18.077Z,-0.32
2023-03-12T07:54:44.704Z,-0.27
2023-03-12T07:57:11.349Z,-0.17
2023-03-12T07:59:38.005Z,-0.13
2023-03-12T08:02:04.557Z,-0.10
2023-03-12T08:04:31.227Z,-0.03
2023-03-12T08:06:58.285Z,-0.01
2023-03-12T08:09:25.504Z,0.02
2023-03-12T08:11:52.048Z,0.08
2023-03-12T08:14:18.609Z,0.16
2023-03-12T08:16:45.147Z,0.19
2023-03-12T08:19:11.849Z,0.22
2023-03-12T08:21:38.318Z,0.28
2023-03-12T08:24:04.855Z,0.33
2023-03-12T08:26:31.382Z,0.39
2023-03-12T08:29:00.210Z,0.39
2023-03-12T08:31:27.498Z,0.45
2023-03-12T08:33:54.035Z,0.48
2023-03-12T08:36:22.391Z,0.44
2023-03-12T08:38:49.104Z,0.50
2023-03-12T08:41:15.566Z,0.62
2023-03-12T08:43:42.059Z,0.71
2023-03-12T08:46:11.033Z,0.74
2023-03-12T08:48:38.835Z,0.78
2023-03-12T08:51:07.484Z,0.74
2023-03-12T08:53:34.765Z,0.70
2023-03-12T08:56:02.084Z,0.73
2023-03-12T08:58:28.539Z,0.77
2023-03-12T09:00:55.808Z,0.82
2023-03-12T09:03:22.540Z,0.87
2023-03-12T09:05:49.588Z,0.89
2023-03-12T09:08:16.609Z,1.00
2023-03-12T09:10:48.092Z,0.99
2023-03-12T09:13:14.622Z,1.03
2023-03-12T09:15:41.057Z,1.16
2023-03-12T09:18:07.512Z,1.25
2023-03-12T09:20:33.971Z,1.29
2023-03-12T09:23:00.430Z,1.19
2023-03-12T09:25:26.965Z,1.19
2023-03-12T09:27:53.484Z,1.28
2023-03-12T09:30:20.941Z,1.40
2023-03-12T09:32:47.424Z,1.49
2023-03-12T09:35:15.050Z,1.63
2023-03-12T09:37:41.545Z,1.59
2023-03-12T09:40:10.574Z,1.68
2023-03-12T09:42:47.934Z,1.76
2023-03-12T09:45:21.307Z,1.76
2023-03-12T09:47:50.387Z,1.78
2023-03-12T09:50:20.159Z,1.82
2023-03-12T09:52:51.088Z,1.87
2023-03-12T09:55:19.823Z,1.91
2023-03-12T09:57:48.114Z,1.97
2023-03-12T10:00:16.436Z,2.11
2023-03-12T10:02:48.408Z,2.20
2023-03-12T10:05:23.764Z,2.27
2023-03-12T10:08:23.138Z,2.15
2023-03-12T10:10:54.975Z,2.24
2023-03-12T10:13:24.442Z,2.34
2023-03-12T10:15:57.643Z,2.43
2023-03-12T10:18:43.215Z,2.54
2023-03-12T10:21:24.925Z,2.56
2023-03-12T10:23:51.378Z,2.64
2023-03-12T10:26:26.675Z,2.74
2023-03-12T10:28:59.099Z,2.79
2023-03-12T10:31:36.420Z,2.88
2023-03-12T10:34:09.317Z,2.92
2023-03-12T10:36:38.440Z,3.03
2023-03-12T10:39:06.879Z,3.11
2023-03-12T10:41:34.886Z,3.17
2023-03-12T10:44:03.966Z,3.16
2023-03-12T10:46:39.027Z,3.15
2023-03-12T10:49:34.959Z,3.16
2023-03-12T10:52:03.097Z,3.18
2023-03-12T10:54:30.948Z,3.33
2023-03-12T10:56:57.607Z,3.31
2023-03-12T10:59:27.433Z,3.33
2023-03-12T11:01:53.954Z,3.28
2023-03-12T11:04:31.012Z,3.27
2023-03-12T11:07:12.500Z,3.43
2023-03-12T11:09:38.952Z,3.55
2023-03-12T11:12:25.749Z,3.58
2023-03-12T11:14:52.420Z,3.71
2023-03-12T11:17:26.083Z,3.85
2023-03-12T11:19:52.969Z,3.84
2023-03-12T11:22:32.984Z,3.84
2023-03-12T11:25:06.060Z,3.95
2023-03-12T11:27:38.208Z,3.97
2023-03-12T11:30:07.341Z,3.90
2023-03-12T11:32:38.785Z,3.92
2023-03-12T11:35:09.943Z,3.91
2023-03-12T11:37:41.344Z,3.95
2023-03-12T11:40:17.318Z,4.06
2023-03-12T11:42:46.592Z,4.01
2023-03-12T11:45:16.172Z,3.96
2023-03-12T11:48:01.250Z,4.04
2023-03-12T11:50:35.327Z,4.24
2023-03-12T11:53:07.663Z,4.27
2023-03-12T11:55:37.135Z,4.24
2023-03-12T11:58:22.405Z,4.38
2023-03-12T12:00:51.955Z,4.47
2023-03-12T12:03:28.076Z,4.55
2023-03-12T12:05:54.582Z,4.68
2023-03-12T12:08:32.315Z,4.78
2023-03-12T12:11:15.417Z,4.87
2023-03-12T12:13:41.859Z,4.93
2023-03-12T12:16:08.327Z,4.95
2023-03-12T12:18:36.027Z,5.01
2023-03-12T12:21:08.054Z,5.07
2023-03-12T12:23:44.157Z,5.11
2023-03-12T12:26:19.596Z,5.17
2023-03-12T12:28:45.998Z,5.19
2023-03-12T12:31:20.785Z,5.18
2023-03-12T12:33:53.426Z,5.26
2023-03-12T12:36:19.910Z,5.40
2023-03-12T12:39:09.441Z,5.50
2023-03-12T12:41:37.308Z,5.48
2023-03-12T12:44:11.333Z,5.48
2023-03-12T12:46:39.866Z,5.49
2023-03-12T12:49:14.836Z,5.42
2023-03-12T12:51:47.387Z,5.28
2023-03-12T12:54:23.413Z,5.41
2023-03-12T12:56:49.926Z,5.29
2023-03-12T12:59:21.605Z,5.40
2023-03-12T13:01:48.597Z,5.51
2023-03-12T13:04:23.493Z,5.51
2023-03-12T13:06:55.957Z,5.55
2023-03-12T13:09:23.450Z,5.54
2023-03-12T13:11:51.627Z,5.41
2023-03-12T13:14:20.628Z,5.31
2023-03-12T13:16:47.685Z,5.33
2023-03-12T13:19:14.130Z,5.34
2023-03-12T13:21:41.800Z,5.41
2023-03-12T13:24:23.289Z,5.48
2023-03-12T13:26:58.706Z,5.50
2023-03-12T13:29:36.054Z,5.62
2023-03-12T13:32:02.999Z,5.69
2023-03-12T13:34:31.532Z,5.89
2023-03-12T13:36:59.761Z,5.76
2023-03-12T13:39:32.122Z,5.64
2023-03-12T13:42:00.593Z,5.74
2023-03-12T13:44:27.046Z,5.80
2023-03-12T13:46:59.543Z,5.73
2023-03-12T13:49:27.316Z,5.63
2023-03-12T13:51:55.729Z,5.80
2023-03-12T13:54:25.464Z,5.89
2023-03-12T13:57:03.317Z,5.85
2023-03-12T13:59:30.170Z,5.75
2023-03-12T14:02:02.339Z,5.71
2023-03-12T14:04:40.876Z,5.59
2023-03-12T14:07:13.195Z,5.62
2023-03-12T14:10:07.025Z,5.56
2023-03-12T14:12:40.527Z,5.57
2023-03-12T14:15:07.006Z,5.62
2023-03-12T14:17:34.588Z,5.53
2023-03-12T14:20:10.606Z,5.63
2023-03-12T14:22:38.717Z,5.74
2023-03-12T14:25:13.145Z,5.71
2023-03-12T14:27:40.207Z,5.76
2023-03-12T14:30:33.155Z,5.85
2023-03-12T14:33:02.422Z,5.80
2023-03-12T14:35:41.725Z,5.78
2023-03-12T14:38:11.182Z,5.77
2023-03-12T14:40:37.691Z,5.86
2023-03-12T14:43:18.661Z,5.83
2023-03-12T14:45:45.126Z,5.90
2023-03-12T14:48:12.175Z,5.92
2023-03-12T14:50:40.447Z,5.91
2023-03-12T14:53:12.145Z,5.89
2023-03-12T14:55:38.663Z,5.86
2023-03-12T14:58:07.052Z,5.68
2023-03-12T15:00:33.740Z,5.64
2023-03-12T15:03:03.309Z,5.69
2023-03-12T15:05:29.974Z,5.70
2023-03-12T15:08:00.875Z,5.69
2023-03-12T15:10:28.644Z,5.65
2023-03-12T15:12:57.481Z,5.62
2023-03-12T15:15:36.143Z,5.50
2023-03-12T15:18:13.228Z,5.57
2023-03-12T15:20:40.382Z,5.54
2023-03-12T15:23:07.664Z,5.59
2023-03-12T15:25:34.993Z,5.70
2023-03-12T15:28:10.623Z,5.63
2023-03-12T15:30:38.146Z,5.60
2023-03-12T15:33:10.744Z,5.50
2023-03-12T15:35:39.079Z,5.52
2023-03-12T15:38:06.113Z,5.53
2023-03-12T15:40:32.696Z,5.57
2023-03-12T15:43:03.213Z,5.53
2023-03-12T15:45:34.942Z,5.44
2023-03-12T15:48:02.767Z,5.41
2023-03-12T15:50:41.344Z,5.36
2023-03-12T15:53:25.779Z,5.38
2023-03-12T15:56:01.527Z,5.33
2023-03-12T15:58:28.533Z,5.30
2023-03-12T16:00:54.998Z,5.24
2023-03-12T16:03:22.398Z,5.20
2023-03-12T16:05:49.917Z,5.17
2023-03-12T16:08:20.663Z,5.07
2023-03-12T16:10:48.147Z,5.03
2023-03-12T16:13:16.035Z,4.95
2023-03-12T16:15:42.483Z,4.89
2023-03-12T16:18:12.806Z,4.86
2023-03-12T16:20:39.317Z,4.80
2023-03-12T16:23:05.788Z,4.77
2023-03-12T16:25:32.562Z,4.56
2023-03-12T16:28:01.397Z,4.46
2023-03-12T16:30:32.260Z,4.40
2023-03-12T16:33:00.266Z,4.42
2023-03-12T16:35:28.322Z,4.40
2023-03-12T16:37:55.747Z,4.28
2023-03-12T16:40:32.828Z,4.21
2023-03-12T16:43:03.381Z,4.22
2023-03-12T16:45:30.763Z,4.23
2023-03-12T16:48:01.864Z,4.22
2023-03-12T16:50:28.641Z,4.20
2023-03-12T16:52:55.559Z,4.18
2023-03-12T16:55:23.605Z,4.15
2023-03-12T16:57:52.204Z,4.08
2023-03-12T17:00:25.877Z,4.03
2023-03-12T17:02:57.726Z,4.00
2023-03-12T17:05:28.379Z,3.96
2023-03-12T17:07:55.106Z,3.90
2023-03-12T17:10:22.349Z,3.81
2023-03-12T17:12:48.988Z,3.81
2023-03-12T17:15:18.716Z,3.79
2023-03-12T17:17:45.235Z,3.69
2023-03-12T17:20:13.980Z,3.66
2023-03-12T17:22:40.944Z,3.63
2023-03-12T17:25:08.055Z,3.59
2023-03-12T17:27:34.789Z,3.52
2023-03-12T17:30:01.246Z,3.49
2023-03-12T17:32:30.006Z,3.47
2023-03-12T17:34:57.723Z,3.42
2023-03-12T17:37:24.146Z,3.39
2023-03-12T17:39:50.657Z,3.35
2023-03-12T17:42:17.141Z,3.30
2023-03-12T17:44:43.562Z,3.28
2023-03-12T17:47:10.032Z,3.24
2023-03-12T17:49:36.519Z,3.19
2023-03-12T17:52:03.307Z,3.11
2023-03-12T17:54:30.190Z,3.04
2023-03-12T17:56:56.651Z,2.96
2023-03-12T17:59:23.136Z,2.92
2023-03-12T18:01:49.627Z,2.90
2023-03-12T18:04:16.263Z,2.90
2023-03-12T18:06:42.805Z,2.90
2023-03-12T18:09:09.255Z,2.85
2023-03-12T18:11:35.704Z,2.76
2023-03-12T18:14:02.166Z,2.70
2023-03-12T18:16:28.823Z,2.64
2023-03-12T18:18:55.319Z,2.59
2023-03-12T18:21:21.825Z,2.56
2023-03-12T18:23:48.300Z,2.52
2023-03-12T18:26:14.776Z,2.49
2023-03-12T18:28:41.220Z,2.47
2023-03-12T18:31:09.172Z,2.42
2023-03-12T18:33:36.435Z,2.42
2023-03-12T18:36:03.935Z,2.40
2023-03-12T18:38:33.225Z,2.37
2023-03-12T18:41:06.681Z,2.38
2023-03-12T18:43:33.569Z,2.38
2023-03-12T18:46:00.086Z,2.35
2023-03-12T18:48:26.808Z,2.30
2023-03-12T18:50:53.627Z,2.26
2023-03-12T18:53:20.435Z,2.24
2023-03-12T18:55:51.252Z,2.20
2023-03-12T18:58:17.717Z,2.16
2023-03-12T19:00:44.214Z,2.14
2023-03-12T19:03:10.699Z,2.12
2023-03-12T19:05:37.190Z,2.11
2023-03-12T19:08:04.100Z,2.05
2023-03-12T19:10:30.571Z,1.99
2023-03-12T19:12:57.076Z,1.95
2023-03-12T19:15:26.507Z,1.94
2023-03-12T19:17:54.080Z,1.88
2023-03-12T19:20:20.776Z,1.80
2023-03-12T19:22:47.282Z,1.73
2023-03-12T19:25:14.367Z,1.67
2023-03-12T19:27:40.812Z,1.66
2023-03-12T19:30:07.752Z,1.64
2023-03-12T19:32:43.327Z,1.54
2023-03-12T19:35:11.987Z,1.50
2023-03-12T19:37:38.610Z,1.46
2023-03-12T19:40:08.368Z,1.42
2023-03-12T19:42:35.022Z,1.36
2023-03-12T19:45:01.474Z,1.32
2023-03-12T19:47:28.283Z,1.28
2023-03-12T19:49:54.798Z,1.24
2023-03-12T19:52:21.273Z,1.19
2023-03-12T19:55:01.610Z,1.09
2023-03-12T19:57:30.777Z,1.05
2023-03-12T19:59:57.286Z,1.06
2023-03-12T20:02:23.904Z,1.10
2023-03-12T20:04:50.408Z,1.07
2023-03-12T20:07:18.530Z,1.04
2023-03-12T20:09:45.083Z,0.98
2023-03-12T20:12:11.604Z,0.90
2023-03-12T20:14:38.433Z,0.86
2023-03-12T20:17:05.383Z,0.82
2023-03-12T20:19:32.748Z,0.83
2023-03-12T20:21:59.203Z,0.84
2023-03-12T20:24:25.761Z,0.82
2023-03-12T20:26:52.232Z,0.84
2023-03-12T20:29:18.722Z,0.83
2023-03-12T20:31:45.288Z,0.79
2023-03-12T20:34:11.789Z,0.69
2023-03-12T20:36:38.260Z,0.63
2023-03-12T20:39:04.868Z,0.61
2023-03-12T20:41:31.491Z,0.59
2023-03-12T20:43:57.988Z,0.63
2023-03-12T20:46:24.696Z,0.60
2023-03-12T20:48:51.242Z,0.62
2023-03-12T20:51:17.877Z,0.60
2023-03-12T20:53:44.468Z,0.58
2023-03-12T20:56:11.601Z,0.55
2023-03-12T20:58:38.101Z,0.53
2023-03-12T21:01:05.670Z,0.54
2023-03-12T21:03:32.611Z,0.55
2023-03-12T21:06:00.149Z,0.60
2023-03-12T21:08:26.952Z,0.61
2023-03-12T21:10:53.478Z,0.60
2023-03-12T21:13:20.723Z,0.60
2023-03-12T21:15:47.659Z,0.55
2023-03-12T21:18:14.190Z,0.52
2023-03-12T21:20:41.543Z,0.49
2023-03-12T21:23:08.643Z,0.49
2023-03-12T21:25:39.429Z,0.48
2023-03-12T21:28:06.769Z,0.47
2023-03-12T21:30:33.669Z,0.53
2023-03-12T21:33:01.186Z,0.54
2023-03-12T21:35:27.971Z,0.58
2023-03-12T21:37:57.089Z,0.63
2023-03-12T21:40:23.882Z,0.65
2023-03-12T21:42:50.594Z,0.66
2023-03-12T21:45:17.127Z,0.65
2023-03-12T21:47:43.577Z,0.65
2023-03-12T21:50:10.554Z,0.65
2023-03-12T21:52:43.099Z,0.67
2023-03-12T21:55:09.992Z,0.69
2023-03-12T21:57:36.478Z,0.70
2023-03-12T22:00:04.061Z,0.74
2023-03-12T22:02:31.634Z,0.77
2023-03-12T22:05:01.182Z,0.74
2023-03-12T22:07:30.494Z,0.79
2023-03-12T22:09:57.301Z,0.77
2023-03-12T22:12:23.781Z,0.79
2023-03-12T22:14:50.363Z,0.79
2023-03-12T22:17:17.346Z,0.79
2023-03-12T22:19:43.942Z,0.74
2023-03-12T22:22:10.420Z,0.74
2023-03-12T22:24:37.522Z,0.74
2023-03-12T22:27:06.568Z,0.69
2023-03-12T22:29:33.519Z,0.68
2023-03-12T22:32:00.131Z,0.69
2023-03-12T22:34:26.675Z,0.75
2023-03-12T22:36:53.176Z,0.78
2023-03-12T22:39:19.611Z,0.79
2023-03-12T22:41:50.445Z,0.81
2023-03-12T22:44:16.899Z,0.81
2023-03-12T22:46:43.343Z,0.85
2023-03-12T22:49:09.834Z,0.88
2023-03-12T22:51:36.304Z,0.90
2023-03-12T22:54:02.762Z,0.95
2023-03-12T22:56:29.222Z,0.94
2023-03-12T22:58:55.971Z,0.95
2023-03-12T23:01:22.962Z,0.94
2023-03-12T23:03:49.979Z,0.88
2023-03-12T23:06:17.995Z,0.92
2023-03-12T23:08:47.481Z,0.96
2023-03-12T23:11:14.491Z,0.99
2023-03-12T23:13:42.425Z,1.03
2023-03-12T23:16:10.491Z,1.07
2023-03-12T23:18:37.132Z,1.06
2023-03-12T23:21:05.457Z,1.08
2023-03-12T23:23:32.408Z,1.06
2023-03-12T23:25:59.561Z,0.98
2023-03-12T23:28:26.979Z,1.00
2023-03-12T23:30:57.789Z,1.01
2023-03-12T23:33:25.011Z,1.04
2023-03-12T23:35:59.098Z,1.02
2023-03-12T23:38:26.320Z,1.00
2023-03-12T23:40:52.957Z,1.01
2023-03-12T23:43:19.490Z,1.04
2023-03-12T23:45:45.986Z,1.10
2023-03-12T23:48:12.498Z,1.14
2023-03-12T23:50:39.037Z,1.10
2023-03-12T23:53:05.473Z,1.13
2023-03-12T23:55:31.969Z,1.18
2023-03-12T23:57:58.433Z,1.23
